createdAt,value
2018-12-24T00:27:52.553Z,6.84
2018-12-24T00:27:53.126Z,6.83
2018-12-24T00:27:53.726Z,6.87
2018-12-24T00:27:54.327Z,6.81
2018-12-24T00:27:54.926Z,6.94
2018-12-24T00:27:55.525Z,6.86
2018-12-24T00:28:50.081Z,6.89
2018-12-24T00:28:50.675Z,6.84
2018-12-24T00:28:51.275Z,6.83
2018-12-24T00:28:51.875Z,6.86
2018-12-24T00:28:52.475Z,6.98
2018-12-24T00:28:53.073Z,6.98
2018-12-24T00:28:53.674Z,6.94
2018-12-24T00:29:47.732Z,6.94
2018-12-24T00:29:48.327Z,6.91
2018-12-24T00:29:48.929Z,6.95
2018-12-24T00:29:49.528Z,6.90
2018-12-24T00:29:50.126Z,6.90
2018-12-24T00:29:50.732Z,7.02
2018-12-24T00:29:51.327Z,6.87
2018-12-24T00:30:45.406Z,6.83
2018-12-24T00:30:45.981Z,7.02
2018-12-24T00:30:46.579Z,7.01
2018-12-24T00:30:47.179Z,6.99
2018-12-24T00:30:47.778Z,7.02
2018-12-24T00:30:48.380Z,6.95
2018-12-24T00:30:48.978Z,6.98
2018-12-24T00:31:43.035Z,6.84
2018-12-24T00:31:43.632Z,6.89
2018-12-24T00:31:44.232Z,6.91
2018-12-24T00:31:44.832Z,6.97
2018-12-24T00:31:45.433Z,6.98
2018-12-24T00:31:46.035Z,6.97
2018-12-24T00:31:46.632Z,7.02
2018-12-24T00:32:40.688Z,6.89
2018-12-24T00:32:41.284Z,6.98
2018-12-24T00:32:41.884Z,6.99
2018-12-24T00:32:42.485Z,6.98
2018-12-24T00:32:43.084Z,6.98
2018-12-24T00:32:43.685Z,6.98
2018-12-24T00:32:44.285Z,6.90
2018-12-24T00:33:38.338Z,6.97
2018-12-24T00:33:38.936Z,6.90
2018-12-24T00:33:39.536Z,7.02
2018-12-24T00:33:40.135Z,6.91
2018-12-24T00:33:40.735Z,6.95
2018-12-24T00:33:41.336Z,6.95
2018-12-24T00:33:41.935Z,7.01
2018-12-24T00:34:35.991Z,6.87
2018-12-24T00:34:36.588Z,6.98
2018-12-24T00:34:37.188Z,6.89
2018-12-24T00:34:37.788Z,7.02
2018-12-24T00:34:38.389Z,6.91
2018-12-24T00:34:38.987Z,6.99
2018-12-24T00:34:39.586Z,6.89
2018-12-24T00:35:33.668Z,6.89
2018-12-24T00:35:34.240Z,6.97
2018-12-24T00:35:34.839Z,7.02
2018-12-24T00:35:35.440Z,6.95
2018-12-24T00:35:36.039Z,6.95
2018-12-24T00:35:36.643Z,6.98
2018-12-24T00:35:37.239Z,6.98
2018-12-24T00:36:31.293Z,6.91
2018-12-24T00:36:31.892Z,6.95
2018-12-24T00:36:32.492Z,6.91
2018-12-24T00:36:33.092Z,6.98
2018-12-24T00:36:33.693Z,6.98
2018-12-24T00:36:34.292Z,6.90
2018-12-24T00:36:34.892Z,7.05
2018-12-24T00:37:28.951Z,6.98
2018-12-24T00:37:29.547Z,7.01
2018-12-24T00:37:30.147Z,6.97
2018-12-24T00:37:30.747Z,7.05
2018-12-24T00:37:31.349Z,7.02
2018-12-24T00:37:31.947Z,6.95
2018-12-24T00:37:32.546Z,7.01
2018-12-24T00:38:26.605Z,7.09
2018-12-24T00:38:27.197Z,6.98
2018-12-24T00:38:27.795Z,6.91
2018-12-24T00:38:28.396Z,6.94
2018-12-24T00:38:28.998Z,7.07
2018-12-24T00:38:29.595Z,7.05
2018-12-24T00:38:30.195Z,6.97
2018-12-24T00:39:24.251Z,6.95
2018-12-24T00:39:24.848Z,7.01
2018-12-24T00:39:25.448Z,6.95
2018-12-24T00:39:26.048Z,7.05
2018-12-24T00:39:26.647Z,7.08
2018-12-24T00:39:27.246Z,7.07
2018-12-24T00:39:27.849Z,6.94
2018-12-24T00:40:21.927Z,6.99
2018-12-24T00:40:22.503Z,6.95
2018-12-24T00:40:23.100Z,7.05
2018-12-24T00:40:23.702Z,7.01
2018-12-24T00:40:24.299Z,7.07
2018-12-24T00:40:24.900Z,7.02
2018-12-24T00:40:25.500Z,7.04
2018-12-24T00:41:19.559Z,6.99
2018-12-24T00:41:20.152Z,7.01
2018-12-24T00:41:20.753Z,7.08
2018-12-24T00:41:21.352Z,7.09
2018-12-24T00:41:21.950Z,7.02
2018-12-24T00:41:22.551Z,7.02
2018-12-24T00:41:23.150Z,7.02
2018-12-24T00:42:17.208Z,7.05
2018-12-24T00:42:17.804Z,7.01
2018-12-24T00:42:18.403Z,7.07
2018-12-24T00:42:19.005Z,7.01
2018-12-24T00:42:19.603Z,6.97
2018-12-24T00:42:20.205Z,7.05
2018-12-24T00:42:20.802Z,6.99
2018-12-24T00:43:14.859Z,7.07
2018-12-24T00:43:15.455Z,7.02
2018-12-24T00:43:16.057Z,6.99
2018-12-24T00:43:16.656Z,7.08
2018-12-24T00:43:17.254Z,7.02
2018-12-24T00:43:17.853Z,7.08
2018-12-24T00:43:18.454Z,7.02
2018-12-24T00:44:12.509Z,7.05
2018-12-24T00:44:13.106Z,7.07
2018-12-24T00:44:13.708Z,7.02
2018-12-24T00:44:14.308Z,7.12
2018-12-24T00:44:14.907Z,7.02
2018-12-24T00:44:15.506Z,6.97
2018-12-24T00:44:16.106Z,7.12
2018-12-24T00:45:10.188Z,7.02
2018-12-24T00:45:10.759Z,7.13
2018-12-24T00:45:11.379Z,6.99
2018-12-24T00:45:11.958Z,7.13
2018-12-24T00:45:12.564Z,7.08
2018-12-24T00:45:13.158Z,7.17
2018-12-24T00:45:13.758Z,7.12
2018-12-24T00:46:07.814Z,7.07
2018-12-24T00:46:08.413Z,7.08
2018-12-24T00:46:09.009Z,7.02
2018-12-24T00:46:09.615Z,7.12
2018-12-24T00:46:10.214Z,7.08
2018-12-24T00:46:10.813Z,7.15
2018-12-24T00:46:11.409Z,7.16
2018-12-24T00:47:05.465Z,7.17
2018-12-24T00:47:06.064Z,7.12
2018-12-24T00:47:06.664Z,7.12
2018-12-24T00:47:07.264Z,7.15
2018-12-24T00:47:07.861Z,7.13
2018-12-24T00:47:08.462Z,7.09
2018-12-24T00:47:09.062Z,7.15
2018-12-24T00:48:03.115Z,7.12
2018-12-24T00:48:03.715Z,7.16
2018-12-24T00:48:04.314Z,7.13
2018-12-24T00:48:04.916Z,7.15
2018-12-24T00:48:05.513Z,7.19
2018-12-24T00:48:06.114Z,7.12
2018-12-24T00:48:06.714Z,7.08
2018-12-24T00:49:00.772Z,7.15
2018-12-24T00:49:01.368Z,7.13
2018-12-24T00:49:01.966Z,7.22
2018-12-24T00:49:02.566Z,7.17
2018-12-24T00:49:03.164Z,7.09
2018-12-24T00:49:03.767Z,7.13
2018-12-24T00:49:04.364Z,7.17
2018-12-24T00:49:58.420Z,7.16
2018-12-24T00:49:59.022Z,7.20
2018-12-24T00:49:59.617Z,7.26
2018-12-24T00:50:00.217Z,7.19
2018-12-24T00:50:00.817Z,7.20
2018-12-24T00:50:01.417Z,7.17
2018-12-24T00:50:02.020Z,7.20
2018-12-24T00:50:56.099Z,7.16
2018-12-24T00:50:56.668Z,7.22
2018-12-24T00:50:57.270Z,7.19
2018-12-24T00:50:57.869Z,7.23
2018-12-24T00:50:58.470Z,7.19
2018-12-24T00:50:59.068Z,7.19
2018-12-24T00:50:59.673Z,7.13
2018-12-24T00:51:53.723Z,7.19
2018-12-24T00:51:54.322Z,7.31
2018-12-24T00:51:54.920Z,7.22
2018-12-24T00:51:55.522Z,7.26
2018-12-24T00:51:56.120Z,7.27
2018-12-24T00:51:56.726Z,7.22
2018-12-24T00:51:57.320Z,7.32
2018-12-24T00:52:51.375Z,7.23
2018-12-24T00:52:51.986Z,7.22
2018-12-24T00:52:52.573Z,7.23
2018-12-24T00:52:53.173Z,7.27
2018-12-24T00:52:53.773Z,7.31
2018-12-24T00:52:54.373Z,7.20
2018-12-24T00:52:54.974Z,7.29
2018-12-24T00:53:49.027Z,7.31
2018-12-24T00:53:49.623Z,7.29
2018-12-24T00:53:50.248Z,7.31
2018-12-24T00:53:50.824Z,7.29
2018-12-24T00:53:51.427Z,7.34
2018-12-24T00:53:52.026Z,7.34
2018-12-24T00:53:52.623Z,7.29
2018-12-24T00:54:46.680Z,7.26
2018-12-24T00:54:47.277Z,7.31
2018-12-24T00:54:47.877Z,7.35
2018-12-24T00:54:48.476Z,7.37
2018-12-24T00:54:49.075Z,7.35
2018-12-24T00:54:49.676Z,7.34
2018-12-24T00:54:50.278Z,7.32
2018-12-24T00:55:45.283Z,7.27
2018-12-24T00:55:45.853Z,7.29
2018-12-24T00:55:46.464Z,7.26
2018-12-24T00:55:47.048Z,7.34
2018-12-24T00:55:47.648Z,7.38
2018-12-24T00:55:48.247Z,7.32
2018-12-24T00:56:42.803Z,7.34
2018-12-24T00:56:43.400Z,7.31
2018-12-24T00:56:44.001Z,7.34
2018-12-24T00:56:44.602Z,7.31
2018-12-24T00:56:45.198Z,7.35
2018-12-24T00:56:45.798Z,7.37
2018-12-24T00:56:46.399Z,7.38
2018-12-24T00:57:40.454Z,7.34
2018-12-24T00:57:41.053Z,7.35
2018-12-24T00:57:41.651Z,7.32
2018-12-24T00:57:42.253Z,7.35
2018-12-24T00:57:42.850Z,7.37
2018-12-24T00:57:43.449Z,7.35
2018-12-24T00:57:44.051Z,7.31
2018-12-24T00:58:38.106Z,7.38
2018-12-24T00:58:38.703Z,7.37
2018-12-24T00:58:39.304Z,7.35
2018-12-24T00:58:39.902Z,7.31
2018-12-24T00:58:40.515Z,7.34
2018-12-24T00:58:41.103Z,7.37
2018-12-24T00:58:41.701Z,7.35
2018-12-24T00:59:35.756Z,7.32
2018-12-24T00:59:36.355Z,7.38
2018-12-24T00:59:36.956Z,7.34
2018-12-24T00:59:37.553Z,7.34
2018-12-24T00:59:38.153Z,7.38
2018-12-24T00:59:38.753Z,7.37
2018-12-24T00:59:39.358Z,7.41
2018-12-24T01:00:33.410Z,7.37
2018-12-24T01:00:34.006Z,7.42
2018-12-24T01:00:34.606Z,7.31
2018-12-24T01:00:35.207Z,7.29
2018-12-24T01:00:35.809Z,7.34
2018-12-24T01:00:36.409Z,7.34
2018-12-24T01:00:37.005Z,7.40
2018-12-24T01:01:31.092Z,7.42
2018-12-24T01:01:31.658Z,7.32
2018-12-24T01:01:32.258Z,7.31
2018-12-24T01:01:32.860Z,7.41
2018-12-24T01:01:33.458Z,7.42
2018-12-24T01:01:34.059Z,7.50
2018-12-24T01:01:34.658Z,7.40
2018-12-24T01:02:28.712Z,7.38
2018-12-24T01:02:29.310Z,7.47
2018-12-24T01:02:29.910Z,7.42
2018-12-24T01:02:30.510Z,7.42
2018-12-24T01:02:31.109Z,7.37
2018-12-24T01:02:31.712Z,7.44
2018-12-24T01:02:32.308Z,7.41
2018-12-24T01:03:26.364Z,7.40
2018-12-24T01:03:26.962Z,7.42
2018-12-24T01:03:27.564Z,7.40
2018-12-24T01:03:28.162Z,7.41
2018-12-24T01:03:28.760Z,7.49
2018-12-24T01:03:29.361Z,7.41
2018-12-24T01:03:29.961Z,7.45
2018-12-24T01:04:24.016Z,7.42
2018-12-24T01:04:24.615Z,7.42
2018-12-24T01:04:25.215Z,7.41
2018-12-24T01:04:25.816Z,7.45
2018-12-24T01:04:26.415Z,7.44
2018-12-24T01:04:27.015Z,7.45
2018-12-24T01:04:27.614Z,7.52
2018-12-24T01:05:21.666Z,7.41
2018-12-24T01:05:22.264Z,7.41
2018-12-24T01:05:22.869Z,7.41
2018-12-24T01:05:23.465Z,7.44
2018-12-24T01:05:24.064Z,7.50
2018-12-24T01:05:24.665Z,7.44
2018-12-24T01:05:25.264Z,7.40
2018-12-24T01:06:19.409Z,7.41
2018-12-24T01:06:19.915Z,7.40
2018-12-24T01:06:20.516Z,7.41
2018-12-24T01:06:21.115Z,7.42
2018-12-24T01:06:21.715Z,7.45
2018-12-24T01:06:22.314Z,7.45
2018-12-24T01:06:22.915Z,7.41
2018-12-24T01:07:17.114Z,7.44
2018-12-24T01:07:17.567Z,7.38
2018-12-24T01:07:18.167Z,7.45
2018-12-24T01:07:18.769Z,7.37
2018-12-24T01:07:19.366Z,7.41
2018-12-24T01:07:19.965Z,7.45
2018-12-24T01:07:20.565Z,7.41
2018-12-24T01:08:14.623Z,7.40
2018-12-24T01:08:15.220Z,7.45
2018-12-24T01:08:15.820Z,7.45
2018-12-24T01:08:16.421Z,7.42
2018-12-24T01:08:17.022Z,7.45
2018-12-24T01:08:17.619Z,7.37
2018-12-24T01:08:18.225Z,7.40
2018-12-24T01:09:12.274Z,7.40
2018-12-24T01:09:12.871Z,7.56
2018-12-24T01:09:13.471Z,7.40
2018-12-24T01:09:14.072Z,7.56
2018-12-24T01:09:14.672Z,7.49
2018-12-24T01:09:15.270Z,7.47
2018-12-24T01:09:15.913Z,7.55
2018-12-24T01:10:12.384Z,7.44
2018-12-24T01:10:12.985Z,7.40
2018-12-24T01:10:13.583Z,7.45
2018-12-24T01:11:07.578Z,7.40
2018-12-24T01:11:08.175Z,7.47
2018-12-24T01:11:08.775Z,7.41
2018-12-24T01:11:09.374Z,7.42
2018-12-24T01:11:09.975Z,7.52
2018-12-24T01:11:10.574Z,7.42
2018-12-24T01:11:11.175Z,7.42
2018-12-24T01:12:05.233Z,7.44
2018-12-24T01:12:05.827Z,7.42
2018-12-24T01:12:06.427Z,7.41
2018-12-24T01:12:07.026Z,7.52
2018-12-24T01:12:07.628Z,7.55
2018-12-24T01:12:08.225Z,7.52
2018-12-24T01:12:08.826Z,7.52
2018-12-24T01:13:02.907Z,7.44
2018-12-24T01:13:03.481Z,7.38
2018-12-24T01:13:04.077Z,7.44
2018-12-24T01:13:04.679Z,7.45
2018-12-24T01:13:05.278Z,7.45
2018-12-24T01:13:05.877Z,7.56
2018-12-24T01:13:06.478Z,7.53
2018-12-24T01:14:00.534Z,7.50
2018-12-24T01:14:01.131Z,7.41
2018-12-24T01:14:01.732Z,7.56
2018-12-24T01:14:02.330Z,7.59
2018-12-24T01:14:02.929Z,7.56
2018-12-24T01:14:03.530Z,7.41
2018-12-24T01:14:04.129Z,7.56
2018-12-24T01:14:58.183Z,7.45
2018-12-24T01:14:58.782Z,7.38
2018-12-24T01:14:59.383Z,7.40
2018-12-24T01:14:59.981Z,7.53
2018-12-24T01:15:00.583Z,7.56
2018-12-24T01:15:01.189Z,7.42
2018-12-24T01:15:01.781Z,7.44
2018-12-24T01:15:55.836Z,7.40
2018-12-24T01:15:56.434Z,7.44
2018-12-24T01:15:57.033Z,7.40
2018-12-24T01:15:57.633Z,7.38
2018-12-24T01:15:58.233Z,7.40
2018-12-24T01:15:58.833Z,7.45
2018-12-24T01:15:59.433Z,7.40
2018-12-24T01:16:53.489Z,7.44
2018-12-24T01:16:54.085Z,7.40
2018-12-24T01:16:54.688Z,7.40
2018-12-24T01:16:55.286Z,7.52
2018-12-24T01:16:55.885Z,7.52
2018-12-24T01:16:56.483Z,7.45
2018-12-24T01:16:57.085Z,7.40
2018-12-24T01:17:51.172Z,7.44
2018-12-24T01:17:51.738Z,7.55
2018-12-24T01:17:52.339Z,7.55
2018-12-24T01:17:52.936Z,7.41
2018-12-24T01:17:53.536Z,7.41
2018-12-24T01:17:54.138Z,7.56
2018-12-24T01:17:54.735Z,7.42
2018-12-24T01:18:48.816Z,7.40
2018-12-24T01:18:49.388Z,7.41
2018-12-24T01:18:49.988Z,7.52
2018-12-24T01:18:50.590Z,7.58
2018-12-24T01:18:51.190Z,7.53
2018-12-24T01:18:51.788Z,7.40
2018-12-24T01:18:52.388Z,7.40
2018-12-24T01:19:46.444Z,7.40
2018-12-24T01:19:47.041Z,7.45
2018-12-24T01:19:47.640Z,7.50
2018-12-24T01:19:48.241Z,7.44
2018-12-24T01:19:48.840Z,7.47
2018-12-24T01:19:49.440Z,7.40
2018-12-24T01:19:50.040Z,7.41
2018-12-24T01:20:44.095Z,7.45
2018-12-24T01:20:44.691Z,7.45
2018-12-24T01:20:45.292Z,7.45
2018-12-24T01:20:45.894Z,7.37
2018-12-24T01:20:46.491Z,7.47
2018-12-24T01:20:47.092Z,7.44
2018-12-24T01:20:47.692Z,7.44
2018-12-24T01:21:41.746Z,7.41
2018-12-24T01:21:42.344Z,7.41
2018-12-24T01:21:42.943Z,7.40
2018-12-24T01:21:43.544Z,7.40
2018-12-24T01:21:44.216Z,7.50
2018-12-24T01:21:44.743Z,7.41
2018-12-24T01:21:45.343Z,7.47
2018-12-24T01:22:39.398Z,7.42
2018-12-24T01:22:39.996Z,7.44
2018-12-24T01:22:40.602Z,7.42
2018-12-24T01:22:41.195Z,7.44
2018-12-24T01:22:41.795Z,7.41
2018-12-24T01:22:42.395Z,7.44
2018-12-24T01:22:42.998Z,7.45
2018-12-24T01:23:37.085Z,7.44
2018-12-24T01:23:37.647Z,7.44
2018-12-24T01:23:38.247Z,7.38
2018-12-24T01:23:38.847Z,7.44
2018-12-24T01:23:39.455Z,7.41
2018-12-24T01:23:40.046Z,7.38
2018-12-24T01:23:40.645Z,7.44
2018-12-24T01:24:34.702Z,7.40
2018-12-24T01:24:35.298Z,7.41
2018-12-24T01:24:35.898Z,7.29
2018-12-24T01:24:36.498Z,7.47
2018-12-24T01:24:37.097Z,7.29
2018-12-24T01:24:37.698Z,7.40
2018-12-24T01:24:38.299Z,7.38
2018-12-24T01:25:32.353Z,7.34
2018-12-24T01:25:32.950Z,7.38
2018-12-24T01:25:33.551Z,7.34
2018-12-24T01:25:34.150Z,7.34
2018-12-24T01:25:34.748Z,7.35
2018-12-24T01:25:35.354Z,7.35
2018-12-24T01:25:35.959Z,7.32
2018-12-24T01:26:30.005Z,7.32
2018-12-24T01:26:30.604Z,7.32
2018-12-24T01:26:31.205Z,7.41
2018-12-24T01:26:31.803Z,7.34
2018-12-24T01:26:32.404Z,7.40
2018-12-24T01:26:33.003Z,7.35
2018-12-24T01:26:33.603Z,7.37
2018-12-24T01:27:27.657Z,7.34
2018-12-24T01:27:28.255Z,7.44
2018-12-24T01:27:28.854Z,7.42
2018-12-24T01:27:29.475Z,7.34
2018-12-24T01:27:30.051Z,7.32
2018-12-24T01:27:30.651Z,7.42
2018-12-24T01:27:31.250Z,7.35
2018-12-24T01:28:25.309Z,7.32
2018-12-24T01:28:25.905Z,7.34
2018-12-24T01:28:26.508Z,7.42
2018-12-24T01:28:27.105Z,7.31
2018-12-24T01:28:27.705Z,7.31
2018-12-24T01:28:28.306Z,7.35
2018-12-24T01:28:28.905Z,7.29
2018-12-24T01:29:22.993Z,7.29
2018-12-24T01:29:23.558Z,7.35
2018-12-24T01:29:24.157Z,7.34
2018-12-24T01:29:24.758Z,7.31
2018-12-24T01:29:25.363Z,7.37
2018-12-24T01:29:25.956Z,7.29
2018-12-24T01:29:26.556Z,7.35
2018-12-24T01:30:20.612Z,7.35
2018-12-24T01:30:21.209Z,7.32
2018-12-24T01:30:21.808Z,7.37
2018-12-24T01:30:22.408Z,7.29
2018-12-24T01:30:23.011Z,7.31
2018-12-24T01:30:23.638Z,7.34
2018-12-24T01:30:24.209Z,7.37
2018-12-24T01:31:20.720Z,7.37
2018-12-24T01:31:21.318Z,7.34
2018-12-24T01:31:21.918Z,7.34
2018-12-24T01:32:15.914Z,7.37
2018-12-24T01:32:16.512Z,7.32
2018-12-24T01:32:17.113Z,7.34
2018-12-24T01:32:17.713Z,7.34
2018-12-24T01:32:18.313Z,7.32
2018-12-24T01:32:18.910Z,7.40
2018-12-24T01:32:19.512Z,7.26
2018-12-24T01:33:13.567Z,7.29
2018-12-24T01:33:14.166Z,7.32
2018-12-24T01:33:14.765Z,7.34
2018-12-24T01:33:15.363Z,7.34
2018-12-24T01:33:15.963Z,7.35
2018-12-24T01:33:16.564Z,7.34
2018-12-24T01:33:17.170Z,7.38
2018-12-24T01:34:11.219Z,7.31
2018-12-24T01:34:11.920Z,7.34
2018-12-24T01:34:12.414Z,7.37
2018-12-24T01:34:13.014Z,7.31
2018-12-24T01:34:13.615Z,7.31
2018-12-24T01:34:14.217Z,7.35
2018-12-24T01:34:14.815Z,7.35
2018-12-24T01:35:08.904Z,7.34
2018-12-24T01:35:09.468Z,7.35
2018-12-24T01:35:10.066Z,7.34
2018-12-24T01:35:10.667Z,7.35
2018-12-24T01:35:11.266Z,7.37
2018-12-24T01:35:11.870Z,7.37
2018-12-24T01:35:12.466Z,7.32
2018-12-24T01:36:06.523Z,7.37
2018-12-24T01:36:07.121Z,7.32
2018-12-24T01:36:07.718Z,7.38
2018-12-24T01:36:08.319Z,7.37
2018-12-24T01:36:08.917Z,7.32
2018-12-24T01:36:09.522Z,7.34
2018-12-24T01:36:10.119Z,7.32
2018-12-24T01:37:04.174Z,7.32
2018-12-24T01:37:04.771Z,7.35
2018-12-24T01:37:05.370Z,7.32
2018-12-24T01:37:05.973Z,7.34
2018-12-24T01:37:06.570Z,7.42
2018-12-24T01:37:07.176Z,7.32
2018-12-24T01:37:07.769Z,7.35
2018-12-24T01:38:01.827Z,7.37
2018-12-24T01:38:02.423Z,7.34
2018-12-24T01:38:03.044Z,7.31
2018-12-24T01:38:03.620Z,7.29
2018-12-24T01:38:04.221Z,7.42
2018-12-24T01:38:04.820Z,7.37
2018-12-24T01:38:05.418Z,7.32
2018-12-24T01:38:59.480Z,7.27
2018-12-24T01:39:00.073Z,7.29
2018-12-24T01:39:00.673Z,7.35
2018-12-24T01:39:01.274Z,7.38
2018-12-24T01:39:01.875Z,7.32
2018-12-24T01:39:02.478Z,7.34
2018-12-24T01:39:03.073Z,7.29
2018-12-24T01:39:57.131Z,7.37
2018-12-24T01:39:57.725Z,7.32
2018-12-24T01:39:58.326Z,7.35
2018-12-24T01:39:58.925Z,7.35
2018-12-24T01:39:59.524Z,7.32
2018-12-24T01:40:00.174Z,7.37
2018-12-24T01:40:00.725Z,7.35
2018-12-24T01:40:54.811Z,7.29
2018-12-24T01:40:55.381Z,7.32
2018-12-24T01:40:55.978Z,7.34
2018-12-24T01:40:56.578Z,7.34
2018-12-24T01:40:57.178Z,7.29
2018-12-24T01:40:57.779Z,7.31
2018-12-24T01:40:58.377Z,7.32
2018-12-24T01:41:52.436Z,7.23
2018-12-24T01:41:53.029Z,7.27
2018-12-24T01:41:53.630Z,7.29
2018-12-24T01:41:54.228Z,7.27
2018-12-24T01:41:54.829Z,7.27
2018-12-24T01:41:55.431Z,7.32
2018-12-24T01:41:56.028Z,7.31
2018-12-24T01:42:50.090Z,7.24
2018-12-24T01:42:50.680Z,7.26
2018-12-24T01:42:51.280Z,7.29
2018-12-24T01:42:51.887Z,7.26
2018-12-24T01:42:52.480Z,7.23
2018-12-24T01:42:53.080Z,7.24
2018-12-24T01:42:53.680Z,7.26
2018-12-24T01:43:47.745Z,7.23
2018-12-24T01:43:48.333Z,7.26
2018-12-24T01:43:48.934Z,7.26
2018-12-24T01:43:49.534Z,7.26
2018-12-24T01:43:50.132Z,7.26
2018-12-24T01:43:50.734Z,7.27
2018-12-24T01:43:51.334Z,7.26
2018-12-24T01:44:45.387Z,7.27
2018-12-24T01:44:45.984Z,7.27
2018-12-24T01:44:46.585Z,7.22
2018-12-24T01:44:47.183Z,7.24
2018-12-24T01:44:47.784Z,7.23
2018-12-24T01:44:48.384Z,7.27
2018-12-24T01:44:48.997Z,7.31
2018-12-24T01:45:43.039Z,7.24
2018-12-24T01:45:43.636Z,7.20
2018-12-24T01:45:44.237Z,7.22
2018-12-24T01:45:44.837Z,7.22
2018-12-24T01:45:45.435Z,7.22
2018-12-24T01:45:46.037Z,7.20
2018-12-24T01:45:46.637Z,7.24
2018-12-24T01:46:40.728Z,7.19
2018-12-24T01:46:41.289Z,7.27
2018-12-24T01:46:41.887Z,7.23
2018-12-24T01:46:42.489Z,7.20
2018-12-24T01:46:43.087Z,7.22
2018-12-24T01:46:43.687Z,7.20
2018-12-24T01:46:44.286Z,7.23
2018-12-24T01:47:38.341Z,7.19
2018-12-24T01:47:38.939Z,7.22
2018-12-24T01:47:39.539Z,7.15
2018-12-24T01:47:40.139Z,7.17
2018-12-24T01:47:40.743Z,7.23
2018-12-24T01:47:41.339Z,7.15
2018-12-24T01:47:41.940Z,7.27
2018-12-24T01:48:35.995Z,7.23
2018-12-24T01:48:36.591Z,7.20
2018-12-24T01:48:37.191Z,7.23
2018-12-24T01:48:37.791Z,7.19
2018-12-24T01:48:38.390Z,7.23
2018-12-24T01:48:38.992Z,7.19
2018-12-24T01:48:39.590Z,7.23
2018-12-24T01:49:33.649Z,7.15
2018-12-24T01:49:34.242Z,7.16
2018-12-24T01:49:34.843Z,7.23
2018-12-24T01:49:35.442Z,7.16
2018-12-24T01:49:36.042Z,7.17
2018-12-24T01:49:36.643Z,7.17
2018-12-24T01:49:37.242Z,7.24
2018-12-24T01:50:31.297Z,7.22
2018-12-24T01:50:31.894Z,7.17
2018-12-24T01:50:32.494Z,7.24
2018-12-24T01:50:33.094Z,7.19
2018-12-24T01:50:33.693Z,7.17
2018-12-24T01:50:34.294Z,7.17
2018-12-24T01:50:34.896Z,7.27
2018-12-24T01:51:28.949Z,7.20
2018-12-24T01:51:29.545Z,7.20
2018-12-24T01:51:30.145Z,7.20
2018-12-24T01:51:30.746Z,7.20
2018-12-24T01:51:31.345Z,7.20
2018-12-24T01:51:31.945Z,7.19
2018-12-24T01:51:32.545Z,7.26
2018-12-24T01:52:26.632Z,7.17
2018-12-24T01:52:27.198Z,7.19
2018-12-24T01:52:27.797Z,7.17
2018-12-24T01:52:28.396Z,7.23
2018-12-24T01:52:28.996Z,7.17
2018-12-24T01:52:29.597Z,7.22
2018-12-24T01:52:30.200Z,7.24
2018-12-24T01:53:24.256Z,7.19
2018-12-24T01:53:24.869Z,7.16
2018-12-24T01:53:25.449Z,7.22
2018-12-24T01:53:26.050Z,7.17
2018-12-24T01:53:26.649Z,7.20
2018-12-24T01:53:27.248Z,7.22
2018-12-24T01:53:27.847Z,7.23
2018-12-24T01:54:21.904Z,7.13
2018-12-24T01:54:22.501Z,7.12
2018-12-24T01:54:23.100Z,7.22
2018-12-24T01:54:23.700Z,7.12
2018-12-24T01:54:24.300Z,7.17
2018-12-24T01:54:24.900Z,7.20
2018-12-24T01:54:25.507Z,7.13
2018-12-24T01:55:19.555Z,7.20
2018-12-24T01:55:20.153Z,7.24
2018-12-24T01:55:20.753Z,7.15
2018-12-24T01:55:21.352Z,7.15
2018-12-24T01:55:21.952Z,7.16
2018-12-24T01:55:22.554Z,7.22
2018-12-24T01:55:23.252Z,7.19
2018-12-24T01:56:17.208Z,7.17
2018-12-24T01:56:17.806Z,7.17
2018-12-24T01:56:18.405Z,7.09
2018-12-24T01:56:19.004Z,7.16
2018-12-24T01:56:19.604Z,7.16
2018-12-24T01:56:20.206Z,7.20
2018-12-24T01:56:20.804Z,7.13
2018-12-24T01:57:14.860Z,7.12
2018-12-24T01:57:15.457Z,7.19
2018-12-24T01:57:16.056Z,7.04
2018-12-24T01:57:16.656Z,7.08
2018-12-24T01:57:17.256Z,7.13
2018-12-24T01:57:17.856Z,7.13
2018-12-24T01:57:18.458Z,7.09
2018-12-24T01:58:12.534Z,7.12
2018-12-24T01:58:13.108Z,7.16
2018-12-24T01:58:13.707Z,7.13
2018-12-24T01:58:14.307Z,7.16
2018-12-24T01:58:14.907Z,7.08
2018-12-24T01:58:15.511Z,7.16
2018-12-24T01:58:16.114Z,7.13
2018-12-24T01:59:10.164Z,7.15
2018-12-24T01:59:10.759Z,7.13
2018-12-24T01:59:11.359Z,7.08
2018-12-24T01:59:11.960Z,7.17
2018-12-24T01:59:12.564Z,7.16
2018-12-24T01:59:13.159Z,7.17
2018-12-24T01:59:13.758Z,7.15
2018-12-24T02:00:07.814Z,7.09
2018-12-24T02:00:08.413Z,7.09
2018-12-24T02:00:09.012Z,7.09
2018-12-24T02:00:09.610Z,7.13
2018-12-24T02:00:10.211Z,7.12
2018-12-24T02:00:10.811Z,7.13
2018-12-24T02:00:11.410Z,7.17
2018-12-24T02:01:05.465Z,7.09
2018-12-24T02:01:06.063Z,7.16
2018-12-24T02:01:06.662Z,7.15
2018-12-24T02:01:07.263Z,7.07
2018-12-24T02:01:07.863Z,7.17
2018-12-24T02:01:08.462Z,7.20
2018-12-24T02:01:09.062Z,7.15
2018-12-24T02:02:03.116Z,7.15
2018-12-24T02:02:03.714Z,7.17
2018-12-24T02:02:04.313Z,7.12
2018-12-24T02:02:04.922Z,7.13
2018-12-24T02:02:05.514Z,7.09
2018-12-24T02:02:06.114Z,7.12
2018-12-24T02:02:06.714Z,7.13
2018-12-24T02:03:00.803Z,7.12
2018-12-24T02:03:01.368Z,7.13
2018-12-24T02:03:01.966Z,7.15
2018-12-24T02:03:02.567Z,7.22
2018-12-24T02:03:03.167Z,7.15
2018-12-24T02:03:03.765Z,7.17
2018-12-24T02:03:04.365Z,7.09
2018-12-24T02:03:58.421Z,7.15
2018-12-24T02:03:59.018Z,7.08
2018-12-24T02:03:59.617Z,7.12
2018-12-24T02:04:00.217Z,7.15
2018-12-24T02:04:00.819Z,7.20
2018-12-24T02:04:01.417Z,7.12
2018-12-24T02:04:02.017Z,7.12
2018-12-24T02:04:56.072Z,7.13
2018-12-24T02:04:56.670Z,7.13
2018-12-24T02:04:57.269Z,7.17
2018-12-24T02:04:57.874Z,7.16
2018-12-24T02:04:58.470Z,7.15
2018-12-24T02:04:59.070Z,7.17
2018-12-24T02:04:59.668Z,7.15
2018-12-24T02:05:53.726Z,7.16
2018-12-24T02:05:54.321Z,7.17
2018-12-24T02:05:54.919Z,7.17
2018-12-24T02:05:55.521Z,7.19
2018-12-24T02:05:56.120Z,7.16
2018-12-24T02:05:56.720Z,7.22
2018-12-24T02:05:57.324Z,7.20
2018-12-24T02:06:51.376Z,7.13
2018-12-24T02:06:51.973Z,7.13
2018-12-24T02:06:52.573Z,7.16
2018-12-24T02:06:53.172Z,7.16
2018-12-24T02:06:53.772Z,7.17
2018-12-24T02:06:54.376Z,7.16
2018-12-24T02:06:54.974Z,7.16
2018-12-24T02:07:49.028Z,7.12
2018-12-24T02:07:49.628Z,7.15
2018-12-24T02:07:50.224Z,7.19
2018-12-24T02:07:50.823Z,7.17
2018-12-24T02:07:51.422Z,7.13
2018-12-24T02:07:52.024Z,7.15
2018-12-24T02:07:52.623Z,7.13
2018-12-24T02:08:46.706Z,7.20
2018-12-24T02:08:47.278Z,7.13
2018-12-24T02:08:47.878Z,7.16
2018-12-24T02:08:48.476Z,7.13
2018-12-24T02:08:49.077Z,7.17
2018-12-24T02:08:49.683Z,7.09
2018-12-24T02:08:50.276Z,7.12
2018-12-24T02:09:44.333Z,7.19
2018-12-24T02:09:44.927Z,7.13
2018-12-24T02:09:45.528Z,7.12
2018-12-24T02:09:46.128Z,7.13
2018-12-24T02:09:46.728Z,7.12
2018-12-24T02:09:47.328Z,7.20
2018-12-24T02:09:47.928Z,7.15
2018-12-24T02:10:41.472Z,7.13
2018-12-24T02:10:42.072Z,7.17
2018-12-24T02:10:42.670Z,7.09
2018-12-24T02:10:43.270Z,7.12
2018-12-24T02:10:43.869Z,7.19
2018-12-24T02:10:44.470Z,7.17
2018-12-24T02:10:45.071Z,7.12
2018-12-24T02:10:45.671Z,7.12
2018-12-24T02:11:39.633Z,7.20
2018-12-24T02:11:40.236Z,7.12
2018-12-24T02:11:40.832Z,7.12
2018-12-24T02:11:41.431Z,7.15
2018-12-24T02:11:42.031Z,7.09
2018-12-24T02:11:42.631Z,7.15
2018-12-24T02:11:43.231Z,7.12
2018-12-24T02:12:57.254Z,7.15
2018-12-24T02:12:57.852Z,7.09
2018-12-24T02:12:58.452Z,7.19
2018-12-24T02:12:59.051Z,7.16
2018-12-24T02:12:59.652Z,7.24
2018-12-24T02:13:00.256Z,7.22
2018-12-24T02:13:00.850Z,7.22
2018-12-24T02:13:54.941Z,7.23
2018-12-24T02:13:55.504Z,7.19
2018-12-24T02:13:56.104Z,7.20
2018-12-24T02:13:56.704Z,7.20
2018-12-24T02:13:57.305Z,7.20
2018-12-24T02:13:57.906Z,7.17
2018-12-24T02:13:58.502Z,7.24
2018-12-24T02:14:52.558Z,7.08
2018-12-24T02:14:53.157Z,7.13
2018-12-24T02:14:53.754Z,7.07
2018-12-24T02:14:54.358Z,7.19
2018-12-24T02:14:54.954Z,7.24
2018-12-24T02:14:55.554Z,7.24
2018-12-24T02:14:56.157Z,7.17
2018-12-24T02:15:50.211Z,7.19
2018-12-24T02:15:50.807Z,7.13
2018-12-24T02:15:51.407Z,7.12
2018-12-24T02:15:52.007Z,7.15
2018-12-24T02:15:52.625Z,7.13
2018-12-24T02:15:53.207Z,7.12
2018-12-24T02:15:53.807Z,7.22
2018-12-24T02:16:47.860Z,7.08
2018-12-24T02:16:48.460Z,7.16
2018-12-24T02:16:49.058Z,7.08
2018-12-24T02:16:49.658Z,7.09
2018-12-24T02:16:50.259Z,7.12
2018-12-24T02:16:50.858Z,7.16
2018-12-24T02:16:51.458Z,7.09
2018-12-24T02:17:45.512Z,7.15
2018-12-24T02:17:46.110Z,7.09
2018-12-24T02:17:46.712Z,7.12
2018-12-24T02:17:47.310Z,7.09
2018-12-24T02:17:47.912Z,7.12
2018-12-24T02:17:48.509Z,7.16
2018-12-24T02:17:49.112Z,7.19
2018-12-24T02:18:43.164Z,7.15
2018-12-24T02:18:43.761Z,7.17
2018-12-24T02:18:44.361Z,7.13